sensor_id;sensor_type;location;lat;lon;timestamp;P1;durP1;ratioP1;P2;durP2;ratioP2
52015;SDS011;38032;53.326;6.472;2023-02-16T00:00:04;57.55;;;33.40;;
52015;SDS011;38032;53.326;6.472;2023-02-16T00:02:31;56.17;;;33.63;;
52015;SDS011;38032;53.326;6.472;2023-02-16T00:04:57;58.17;;;35.33;;
52015;SDS011;38032;53.326;6.472;2023-02-16T00:07:23;57.60;;;36.08;;
52015;SDS011;38032;53.326;6.472;2023-02-16T00:09:48;62.90;;;35.03;;
52015;SDS011;38032;53.326;6.472;2023-02-16T00:12:15;58.95;;;34.97;;
52015;SDS011;38032;53.326;6.472;2023-02-16T00:15:17;58.35;;;35.45;;
52015;SDS011;38032;53.326;6.472;2023-02-16T00:17:44;58.17;;;34.17;;
52015;SDS011;38032;53.326;6.472;2023-02-16T00:20:13;57.95;;;35.17;;
52015;SDS011;38032;53.326;6.472;2023-02-16T00:22:39;55.20;;;33.15;;
52015;SDS011;38032;53.326;6.472;2023-02-16T00:25:05;59.67;;;35.50;;
52015;SDS011;38032;53.326;6.472;2023-02-16T00:27:32;58.25;;;36.47;;
52015;SDS011;38032;53.326;6.472;2023-02-16T00:29:58;60.30;;;37.17;;
52015;SDS011;38032;53.326;6.472;2023-02-16T00:32:25;66.13;;;37.55;;
52015;SDS011;38032;53.326;6.472;2023-02-16T00:34:51;57.80;;;34.28;;
52015;SDS011;38032;53.326;6.472;2023-02-16T00:37:17;62.22;;;35.70;;
52015;SDS011;38032;53.326;6.472;2023-02-16T00:39:43;56.25;;;32.20;;
52015;SDS011;38032;53.326;6.472;2023-02-16T00:42:14;53.92;;;33.33;;
52015;SDS011;38032;53.326;6.472;2023-02-16T00:44:44;59.83;;;36.38;;
52015;SDS011;38032;53.326;6.472;2023-02-16T00:49:47;54.65;;;33.47;;
52015;SDS011;38032;53.326;6.472;2023-02-16T00:52:23;61.65;;;35.05;;
52015;SDS011;38032;53.326;6.472;2023-02-16T00:54:55;55.70;;;33.08;;
52015;SDS011;38032;53.326;6.472;2023-02-16T00:57:22;56.75;;;35.13;;
52015;SDS011;38032;53.326;6.472;2023-02-16T00:59:51;56.38;;;34.50;;
52015;SDS011;38032;53.326;6.472;2023-02-16T01:02:24;57.65;;;35.33;;
52015;SDS011;38032;53.326;6.472;2023-02-16T01:04:50;58.22;;;35.08;;
52015;SDS011;38032;53.326;6.472;2023-02-16T01:07:17;56.85;;;35.20;;
52015;SDS011;38032;53.326;6.472;2023-02-16T01:10:02;64.35;;;37.10;;
52015;SDS011;38032;53.326;6.472;2023-02-16T01:12:47;59.75;;;34.97;;
52015;SDS011;38032;53.326;6.472;2023-02-16T01:15:14;57.53;;;33.38;;
52015;SDS011;38032;53.326;6.472;2023-02-16T01:17:50;57.95;;;35.92;;
52015;SDS011;38032;53.326;6.472;2023-02-16T01:20:17;59.60;;;36.25;;
52015;SDS011;38032;53.326;6.472;2023-02-16T01:22:45;64.88;;;38.42;;
52015;SDS011;38032;53.326;6.472;2023-02-16T01:25:12;57.22;;;33.75;;
52015;SDS011;38032;53.326;6.472;2023-02-16T01:27:38;57.25;;;36.03;;
52015;SDS011;38032;53.326;6.472;2023-02-16T01:30:05;59.60;;;35.90;;
52015;SDS011;38032;53.326;6.472;2023-02-16T01:32:36;59.42;;;36.65;;
52015;SDS011;38032;53.326;6.472;2023-02-16T01:35:02;62.75;;;36.15;;
52015;SDS011;38032;53.326;6.472;2023-02-16T01:37:28;62.00;;;36.20;;
52015;SDS011;38032;53.326;6.472;2023-02-16T01:39:54;57.85;;;35.25;;
52015;SDS011;38032;53.326;6.472;2023-02-16T01:42:35;61.83;;;36.92;;
52015;SDS011;38032;53.326;6.472;2023-02-16T01:45:12;58.83;;;35.67;;
52015;SDS011;38032;53.326;6.472;2023-02-16T01:47:46;56.97;;;35.75;;
52015;SDS011;38032;53.326;6.472;2023-02-16T01:50:19;57.00;;;35.42;;
52015;SDS011;38032;53.326;6.472;2023-02-16T01:53:01;56.83;;;35.58;;
52015;SDS011;38032;53.326;6.472;2023-02-16T01:55:37;56.25;;;34.55;;
52015;SDS011;38032;53.326;6.472;2023-02-16T01:58:12;59.38;;;36.25;;
52015;SDS011;38032;53.326;6.472;2023-02-16T02:03:21;55.28;;;32.55;;
52015;SDS011;38032;53.326;6.472;2023-02-16T02:06:09;55.70;;;35.63;;
52015;SDS011;38032;53.326;6.472;2023-02-16T02:08:41;57.22;;;33.53;;
52015;SDS011;38032;53.326;6.472;2023-02-16T02:11:15;53.17;;;34.60;;
52015;SDS011;38032;53.326;6.472;2023-02-16T02:13:46;58.35;;;34.90;;
52015;SDS011;38032;53.326;6.472;2023-02-16T02:16:19;50.70;;;33.20;;
52015;SDS011;38032;53.326;6.472;2023-02-16T02:18:47;56.83;;;35.33;;
52015;SDS011;38032;53.326;6.472;2023-02-16T02:24:44;53.83;;;32.33;;
52015;SDS011;38032;53.326;6.472;2023-02-16T02:27:52;56.55;;;34.28;;
52015;SDS011;38032;53.326;6.472;2023-02-16T02:33:15;52.25;;;31.48;;
52015;SDS011;38032;53.326;6.472;2023-02-16T02:35:58;62.47;;;34.53;;
52015;SDS011;38032;53.326;6.472;2023-02-16T02:38:40;59.65;;;34.70;;
52015;SDS011;38032;53.326;6.472;2023-02-16T02:41:35;52.50;;;33.80;;
52015;SDS011;38032;53.326;6.472;2023-02-16T02:44:26;56.38;;;34.72;;
52015;SDS011;38032;53.326;6.472;2023-02-16T02:46:55;53.65;;;33.95;;
52015;SDS011;38032;53.326;6.472;2023-02-16T02:49:21;57.22;;;33.30;;
52015;SDS011;38032;53.326;6.472;2023-02-16T02:51:47;57.33;;;34.72;;
52015;SDS011;38032;53.326;6.472;2023-02-16T02:54:16;63.85;;;35.67;;
52015;SDS011;38032;53.326;6.472;2023-02-16T02:57:15;61.03;;;37.28;;
52015;SDS011;38032;53.326;6.472;2023-02-16T03:00:12;58.78;;;34.88;;
52015;SDS011;38032;53.326;6.472;2023-02-16T03:03:05;55.72;;;33.50;;
52015;SDS011;38032;53.326;6.472;2023-02-16T03:05:35;60.50;;;35.88;;
52015;SDS011;38032;53.326;6.472;2023-02-16T03:08:07;57.53;;;34.80;;
52015;SDS011;38032;53.326;6.472;2023-02-16T03:10:39;54.05;;;33.40;;
52015;SDS011;38032;53.326;6.472;2023-02-16T03:13:29;53.58;;;34.00;;
52015;SDS011;38032;53.326;6.472;2023-02-16T03:16:02;58.65;;;35.40;;
52015;SDS011;38032;53.326;6.472;2023-02-16T03:18:31;54.30;;;33.60;;
52015;SDS011;38032;53.326;6.472;2023-02-16T03:21:19;65.80;;;37.47;;
52015;SDS011;38032;53.326;6.472;2023-02-16T03:24:03;57.97;;;35.22;;
52015;SDS011;38032;53.326;6.472;2023-02-16T03:26:51;57.03;;;35.47;;
52015;SDS011;38032;53.326;6.472;2023-02-16T03:29:38;61.28;;;36.95;;
52015;SDS011;38032;53.326;6.472;2023-02-16T03:32:04;54.92;;;34.55;;
52015;SDS011;38032;53.326;6.472;2023-02-16T03:34:30;60.40;;;35.83;;
52015;SDS011;38032;53.326;6.472;2023-02-16T03:36:58;58.80;;;37.60;;
52015;SDS011;38032;53.326;6.472;2023-02-16T03:39:25;59.17;;;36.08;;
52015;SDS011;38032;53.326;6.472;2023-02-16T03:41:53;57.33;;;35.03;;
52015;SDS011;38032;53.326;6.472;2023-02-16T03:44:20;53.10;;;33.58;;
52015;SDS011;38032;53.326;6.472;2023-02-16T03:46:46;54.40;;;35.10;;
52015;SDS011;38032;53.326;6.472;2023-02-16T03:49:14;55.35;;;34.70;;
52015;SDS011;38032;53.326;6.472;2023-02-16T03:51:40;55.05;;;35.20;;
52015;SDS011;38032;53.326;6.472;2023-02-16T03:54:06;53.70;;;33.83;;
52015;SDS011;38032;53.326;6.472;2023-02-16T03:56:32;57.97;;;36.97;;
52015;SDS011;38032;53.326;6.472;2023-02-16T03:58:58;57.17;;;34.35;;
52015;SDS011;38032;53.326;6.472;2023-02-16T04:01:24;50.15;;;32.22;;
52015;SDS011;38032;53.326;6.472;2023-02-16T04:03:50;56.53;;;34.08;;
52015;SDS011;38032;53.326;6.472;2023-02-16T04:06:16;55.67;;;34.28;;
52015;SDS011;38032;53.326;6.472;2023-02-16T04:08:42;50.33;;;31.80;;
52015;SDS011;38032;53.326;6.472;2023-02-16T04:11:08;56.63;;;33.42;;
52015;SDS011;38032;53.326;6.472;2023-02-16T04:13:52;54.65;;;33.88;;
52015;SDS011;38032;53.326;6.472;2023-02-16T04:16:18;60.63;;;34.75;;
52015;SDS011;38032;53.326;6.472;2023-02-16T04:18:44;54.17;;;34.97;;
52015;SDS011;38032;53.326;6.472;2023-02-16T04:21:10;54.92;;;34.05;;
52015;SDS011;38032;53.326;6.472;2023-02-16T04:23:36;48.88;;;30.45;;
52015;SDS011;38032;53.326;6.472;2023-02-16T04:26:02;58.25;;;33.47;;
52015;SDS011;38032;53.326;6.472;2023-02-16T04:28:28;51.70;;;33.40;;
52015;SDS011;38032;53.326;6.472;2023-02-16T04:30:54;51.22;;;32.72;;
52015;SDS011;38032;53.326;6.472;2023-02-16T04:33:19;50.55;;;31.88;;
52015;SDS011;38032;53.326;6.472;2023-02-16T04:35:45;53.90;;;33.90;;
52015;SDS011;38032;53.326;6.472;2023-02-16T04:38:11;47.00;;;31.05;;
52015;SDS011;38032;53.326;6.472;2023-02-16T04:40:37;56.33;;;34.78;;
52015;SDS011;38032;53.326;6.472;2023-02-16T04:43:03;58.85;;;34.88;;
52015;SDS011;38032;53.326;6.472;2023-02-16T04:45:29;46.28;;;29.17;;
52015;SDS011;38032;53.326;6.472;2023-02-16T04:47:54;58.60;;;34.72;;
52015;SDS011;38032;53.326;6.472;2023-02-16T04:50:20;56.00;;;34.63;;
52015;SDS011;38032;53.326;6.472;2023-02-16T04:52:46;51.63;;;33.75;;
52015;SDS011;38032;53.326;6.472;2023-02-16T04:55:12;53.53;;;33.38;;
52015;SDS011;38032;53.326;6.472;2023-02-16T04:57:38;59.08;;;35.13;;
52015;SDS011;38032;53.326;6.472;2023-02-16T05:00:05;53.88;;;33.60;;
52015;SDS011;38032;53.326;6.472;2023-02-16T05:02:32;50.35;;;31.08;;
52015;SDS011;38032;53.326;6.472;2023-02-16T05:04:58;53.63;;;34.50;;
52015;SDS011;38032;53.326;6.472;2023-02-16T05:07:24;53.05;;;32.83;;
52015;SDS011;38032;53.326;6.472;2023-02-16T05:09:50;49.17;;;30.88;;
52015;SDS011;38032;53.326;6.472;2023-02-16T05:12:16;60.17;;;36.53;;
52015;SDS011;38032;53.326;6.472;2023-02-16T05:15:00;47.03;;;30.27;;
52015;SDS011;38032;53.326;6.472;2023-02-16T05:17:26;53.65;;;33.70;;
52015;SDS011;38032;53.326;6.472;2023-02-16T05:19:54;52.60;;;32.95;;
52015;SDS011;38032;53.326;6.472;2023-02-16T05:22:22;52.17;;;32.92;;
52015;SDS011;38032;53.326;6.472;2023-02-16T05:24:48;53.75;;;35.20;;
52015;SDS011;38032;53.326;6.472;2023-02-16T05:27:16;49.00;;;30.30;;
52015;SDS011;38032;53.326;6.472;2023-02-16T05:29:45;59.55;;;35.72;;
52015;SDS011;38032;53.326;6.472;2023-02-16T05:32:11;49.75;;;31.08;;
52015;SDS011;38032;53.326;6.472;2023-02-16T05:34:37;56.97;;;34.60;;
52015;SDS011;38032;53.326;6.472;2023-02-16T05:37:03;48.72;;;29.95;;
52015;SDS011;38032;53.326;6.472;2023-02-16T05:39:29;55.53;;;33.22;;
52015;SDS011;38032;53.326;6.472;2023-02-16T05:41:55;50.90;;;30.85;;
52015;SDS011;38032;53.326;6.472;2023-02-16T05:44:22;43.53;;;30.00;;
52015;SDS011;38032;53.326;6.472;2023-02-16T05:46:48;49.08;;;33.38;;
52015;SDS011;38032;53.326;6.472;2023-02-16T05:49:14;51.85;;;32.13;;
52015;SDS011;38032;53.326;6.472;2023-02-16T05:51:41;48.90;;;31.38;;
52015;SDS011;38032;53.326;6.472;2023-02-16T05:54:07;50.50;;;32.40;;
52015;SDS011;38032;53.326;6.472;2023-02-16T05:56:35;49.45;;;30.50;;
52015;SDS011;38032;53.326;6.472;2023-02-16T05:59:01;47.65;;;30.30;;
52015;SDS011;38032;53.326;6.472;2023-02-16T06:01:27;44.53;;;28.85;;
52015;SDS011;38032;53.326;6.472;2023-02-16T06:03:53;50.15;;;31.20;;
52015;SDS011;38032;53.326;6.472;2023-02-16T06:06:19;56.20;;;34.28;;
52015;SDS011;38032;53.326;6.472;2023-02-16T06:08:45;52.22;;;33.35;;
52015;SDS011;38032;53.326;6.472;2023-02-16T06:11:11;52.50;;;33.58;;
52015;SDS011;38032;53.326;6.472;2023-02-16T06:13:56;52.20;;;32.10;;
52015;SDS011;38032;53.326;6.472;2023-02-16T06:16:25;48.75;;;30.40;;
52015;SDS011;38032;53.326;6.472;2023-02-16T06:18:51;50.92;;;33.50;;
52015;SDS011;38032;53.326;6.472;2023-02-16T06:21:18;45.78;;;31.02;;
52015;SDS011;38032;53.326;6.472;2023-02-16T06:23:44;51.28;;;30.45;;
52015;SDS011;38032;53.326;6.472;2023-02-16T06:26:10;51.38;;;32.65;;
52015;SDS011;38032;53.326;6.472;2023-02-16T06:28:36;48.03;;;30.38;;
52015;SDS011;38032;53.326;6.472;2023-02-16T06:31:02;51.95;;;32.97;;
52015;SDS011;38032;53.326;6.472;2023-02-16T06:33:28;50.85;;;31.73;;
52015;SDS011;38032;53.326;6.472;2023-02-16T06:35:53;47.28;;;30.92;;
52015;SDS011;38032;53.326;6.472;2023-02-16T06:38:19;52.78;;;34.17;;
52015;SDS011;38032;53.326;6.472;2023-02-16T06:40:45;54.80;;;33.33;;
52015;SDS011;38032;53.326;6.472;2023-02-16T06:43:11;45.83;;;29.50;;
52015;SDS011;38032;53.326;6.472;2023-02-16T06:45:37;53.83;;;33.40;;
52015;SDS011;38032;53.326;6.472;2023-02-16T06:48:03;50.10;;;33.40;;
52015;SDS011;38032;53.326;6.472;2023-02-16T06:50:29;49.72;;;31.02;;
52015;SDS011;38032;53.326;6.472;2023-02-16T06:52:54;46.65;;;30.08;;
52015;SDS011;38032;53.326;6.472;2023-02-16T06:55:20;45.42;;;28.15;;
52015;SDS011;38032;53.326;6.472;2023-02-16T06:57:46;49.60;;;32.17;;
52015;SDS011;38032;53.326;6.472;2023-02-16T07:00:12;49.83;;;32.97;;
52015;SDS011;38032;53.326;6.472;2023-02-16T07:02:39;49.20;;;28.63;;
52015;SDS011;38032;53.326;6.472;2023-02-16T07:05:04;51.30;;;30.85;;
52015;SDS011;38032;53.326;6.472;2023-02-16T07:07:30;46.13;;;29.58;;
52015;SDS011;38032;53.326;6.472;2023-02-16T07:09:56;47.55;;;31.67;;
52015;SDS011;38032;53.326;6.472;2023-02-16T07:12:22;54.85;;;34.70;;
52015;SDS011;38032;53.326;6.472;2023-02-16T07:14:48;45.13;;;29.42;;
52015;SDS011;38032;53.326;6.472;2023-02-16T07:17:14;47.42;;;30.50;;
52015;SDS011;38032;53.326;6.472;2023-02-16T07:19:40;55.28;;;34.63;;
52015;SDS011;38032;53.326;6.472;2023-02-16T07:22:06;47.53;;;29.88;;
52015;SDS011;38032;53.326;6.472;2023-02-16T07:24:32;52.78;;;33.40;;
52015;SDS011;38032;53.326;6.472;2023-02-16T07:26:58;50.35;;;32.17;;
52015;SDS011;38032;53.326;6.472;2023-02-16T07:29:24;49.70;;;31.35;;
52015;SDS011;38032;53.326;6.472;2023-02-16T07:31:50;53.33;;;35.15;;
52015;SDS011;38032;53.326;6.472;2023-02-16T07:34:16;53.45;;;34.53;;
52015;SDS011;38032;53.326;6.472;2023-02-16T07:36:41;50.83;;;33.72;;
52015;SDS011;38032;53.326;6.472;2023-02-16T07:39:09;48.00;;;32.45;;
52015;SDS011;38032;53.326;6.472;2023-02-16T07:41:35;54.15;;;34.58;;
52015;SDS011;38032;53.326;6.472;2023-02-16T07:44:01;51.17;;;33.08;;
52015;SDS011;38032;53.326;6.472;2023-02-16T07:46:27;41.33;;;28.30;;
52015;SDS011;38032;53.326;6.472;2023-02-16T07:48:53;43.90;;;29.60;;
52015;SDS011;38032;53.326;6.472;2023-02-16T07:51:20;47.67;;;31.75;;
52015;SDS011;38032;53.326;6.472;2023-02-16T07:53:48;52.50;;;33.38;;
52015;SDS011;38032;53.326;6.472;2023-02-16T07:56:24;48.90;;;32.70;;
52015;SDS011;38032;53.326;6.472;2023-02-16T07:58:52;57.10;;;36.35;;
52015;SDS011;38032;53.326;6.472;2023-02-16T08:01:19;53.95;;;35.20;;
52015;SDS011;38032;53.326;6.472;2023-02-16T08:03:46;58.90;;;34.92;;
52015;SDS011;38032;53.326;6.472;2023-02-16T08:06:12;47.13;;;30.70;;
52015;SDS011;38032;53.326;6.472;2023-02-16T08:08:38;46.47;;;30.63;;
52015;SDS011;38032;53.326;6.472;2023-02-16T08:11:09;50.65;;;33.50;;
52015;SDS011;38032;53.326;6.472;2023-02-16T08:13:37;46.08;;;29.83;;
52015;SDS011;38032;53.326;6.472;2023-02-16T08:16:09;52.67;;;34.20;;
52015;SDS011;38032;53.326;6.472;2023-02-16T08:18:37;47.33;;;31.40;;
52015;SDS011;38032;53.326;6.472;2023-02-16T08:21:07;43.25;;;28.20;;
52015;SDS011;38032;53.326;6.472;2023-02-16T08:23:42;60.80;;;36.88;;
52015;SDS011;38032;53.326;6.472;2023-02-16T08:26:11;52.60;;;33.45;;
52015;SDS011;38032;53.326;6.472;2023-02-16T08:28:39;44.08;;;29.10;;
52015;SDS011;38032;53.326;6.472;2023-02-16T08:31:12;52.97;;;34.10;;
52015;SDS011;38032;53.326;6.472;2023-02-16T08:33:39;45.92;;;30.90;;
52015;SDS011;38032;53.326;6.472;2023-02-16T08:36:05;53.40;;;34.60;;
52015;SDS011;38032;53.326;6.472;2023-02-16T08:38:37;56.60;;;36.08;;
52015;SDS011;38032;53.326;6.472;2023-02-16T08:41:07;52.47;;;34.95;;
52015;SDS011;38032;53.326;6.472;2023-02-16T08:43:33;53.50;;;34.47;;
52015;SDS011;38032;53.326;6.472;2023-02-16T08:45:59;50.28;;;32.33;;
52015;SDS011;38032;53.326;6.472;2023-02-16T08:48:25;43.85;;;28.83;;
52015;SDS011;38032;53.326;6.472;2023-02-16T08:50:53;51.67;;;34.00;;
52015;SDS011;38032;53.326;6.472;2023-02-16T08:53:19;52.15;;;34.05;;
52015;SDS011;38032;53.326;6.472;2023-02-16T08:55:56;58.80;;;35.90;;
52015;SDS011;38032;53.326;6.472;2023-02-16T08:58:23;55.22;;;35.08;;
52015;SDS011;38032;53.326;6.472;2023-02-16T09:00:51;56.08;;;36.28;;
52015;SDS011;38032;53.326;6.472;2023-02-16T09:03:17;49.97;;;31.70;;
52015;SDS011;38032;53.326;6.472;2023-02-16T09:05:44;45.47;;;30.23;;
52015;SDS011;38032;53.326;6.472;2023-02-16T09:08:10;49.65;;;31.85;;
52015;SDS011;38032;53.326;6.472;2023-02-16T09:10:36;55.55;;;35.33;;
52015;SDS011;38032;53.326;6.472;2023-02-16T09:13:03;52.60;;;33.13;;
52015;SDS011;38032;53.326;6.472;2023-02-16T09:15:29;53.03;;;33.67;;
52015;SDS011;38032;53.326;6.472;2023-02-16T09:17:56;53.75;;;33.67;;
52015;SDS011;38032;53.326;6.472;2023-02-16T09:20:22;45.30;;;30.70;;
52015;SDS011;38032;53.326;6.472;2023-02-16T09:22:48;50.22;;;30.52;;
52015;SDS011;38032;53.326;6.472;2023-02-16T09:25:14;51.58;;;32.80;;
52015;SDS011;38032;53.326;6.472;2023-02-16T09:27:41;57.92;;;34.85;;
52015;SDS011;38032;53.326;6.472;2023-02-16T09:30:07;52.78;;;32.45;;
52015;SDS011;38032;53.326;6.472;2023-02-16T09:32:34;42.85;;;28.27;;
52015;SDS011;38032;53.326;6.472;2023-02-16T09:35:01;47.45;;;31.00;;
52015;SDS011;38032;53.326;6.472;2023-02-16T09:37:27;55.22;;;33.22;;
52015;SDS011;38032;53.326;6.472;2023-02-16T09:39:53;49.83;;;31.08;;
52015;SDS011;38032;53.326;6.472;2023-02-16T09:42:23;52.28;;;32.55;;
52015;SDS011;38032;53.326;6.472;2023-02-16T09:47:37;52.00;;;30.30;;
52015;SDS011;38032;53.326;6.472;2023-02-16T09:50:19;47.45;;;30.27;;
52015;SDS011;38032;53.326;6.472;2023-02-16T09:55:17;42.25;;;26.90;;
52015;SDS011;38032;53.326;6.472;2023-02-16T09:57:49;43.97;;;28.13;;
52015;SDS011;38032;53.326;6.472;2023-02-16T10:08:13;51.30;;;30.10;;
52015;SDS011;38032;53.326;6.472;2023-02-16T10:10:49;48.70;;;31.00;;
52015;SDS011;38032;53.326;6.472;2023-02-16T10:13:28;55.22;;;31.92;;
52015;SDS011;38032;53.326;6.472;2023-02-16T10:16:10;58.30;;;35.85;;
52015;SDS011;38032;53.326;6.472;2023-02-16T10:18:42;49.55;;;31.67;;
52015;SDS011;38032;53.326;6.472;2023-02-16T10:21:14;56.28;;;34.35;;
52015;SDS011;38032;53.326;6.472;2023-02-16T10:23:48;57.55;;;35.35;;
52015;SDS011;38032;53.326;6.472;2023-02-16T10:26:24;54.80;;;33.85;;
52015;SDS011;38032;53.326;6.472;2023-02-16T10:29:07;52.70;;;32.67;;
52015;SDS011;38032;53.326;6.472;2023-02-16T10:31:42;50.60;;;30.75;;
52015;SDS011;38032;53.326;6.472;2023-02-16T10:34:49;49.05;;;29.88;;
52015;SDS011;38032;53.326;6.472;2023-02-16T10:42:33;56.90;;;35.67;;
52015;SDS011;38032;53.326;6.472;2023-02-16T10:47:47;53.00;;;34.88;;
52015;SDS011;38032;53.326;6.472;2023-02-16T10:52:45;46.38;;;29.58;;
52015;SDS011;38032;53.326;6.472;2023-02-16T10:55:11;57.45;;;35.47;;
52015;SDS011;38032;53.326;6.472;2023-02-16T10:57:37;49.88;;;33.22;;
52015;SDS011;38032;53.326;6.472;2023-02-16T11:00:05;53.45;;;34.63;;
52015;SDS011;38032;53.326;6.472;2023-02-16T11:02:38;52.60;;;33.72;;
52015;SDS011;38032;53.326;6.472;2023-02-16T11:07:55;57.35;;;36.55;;
52015;SDS011;38032;53.326;6.472;2023-02-16T11:10:36;60.65;;;35.78;;
52015;SDS011;38032;53.326;6.472;2023-02-16T11:13:04;55.40;;;32.42;;
52015;SDS011;38032;53.326;6.472;2023-02-16T11:15:32;53.50;;;34.55;;
52015;SDS011;38032;53.326;6.472;2023-02-16T11:18:03;49.90;;;32.08;;
52015;SDS011;38032;53.326;6.472;2023-02-16T11:20:49;50.13;;;29.40;;
52015;SDS011;38032;53.326;6.472;2023-02-16T11:23:22;48.13;;;29.60;;
52015;SDS011;38032;53.326;6.472;2023-02-16T11:28:36;54.42;;;33.05;;
52015;SDS011;38032;53.326;6.472;2023-02-16T11:33:36;42.80;;;28.48;;
52015;SDS011;38032;53.326;6.472;2023-02-16T11:36:21;51.72;;;31.67;;
52015;SDS011;38032;53.326;6.472;2023-02-16T11:38:55;50.80;;;32.30;;
52015;SDS011;38032;53.326;6.472;2023-02-16T11:41:25;50.45;;;31.08;;
52015;SDS011;38032;53.326;6.472;2023-02-16T11:43:52;49.15;;;31.08;;
52015;SDS011;38032;53.326;6.472;2023-02-16T11:46:20;47.00;;;30.17;;
52015;SDS011;38032;53.326;6.472;2023-02-16T11:48:47;58.42;;;36.15;;
52015;SDS011;38032;53.326;6.472;2023-02-16T11:51:14;57.13;;;34.80;;
52015;SDS011;38032;53.326;6.472;2023-02-16T11:53:58;52.80;;;31.67;;
52015;SDS011;38032;53.326;6.472;2023-02-16T11:56:27;48.03;;;31.15;;
52015;SDS011;38032;53.326;6.472;2023-02-16T11:59:02;55.17;;;33.95;;
52015;SDS011;38032;53.326;6.472;2023-02-16T12:09:26;59.35;;;35.55;;
52015;SDS011;38032;53.326;6.472;2023-02-16T12:12:10;54.20;;;33.00;;
52015;SDS011;38032;53.326;6.472;2023-02-16T12:19:58;46.90;;;29.85;;
52015;SDS011;38032;53.326;6.472;2023-02-16T12:22:35;46.72;;;31.27;;
52015;SDS011;38032;53.326;6.472;2023-02-16T12:25:24;44.80;;;27.90;;
52015;SDS011;38032;53.326;6.472;2023-02-16T12:30:53;48.67;;;30.13;;
52015;SDS011;38032;53.326;6.472;2023-02-16T12:34:11;38.47;;;24.85;;
52015;SDS011;38032;53.326;6.472;2023-02-16T12:36:44;43.38;;;27.02;;
52015;SDS011;38032;53.326;6.472;2023-02-16T12:39:30;41.42;;;24.00;;
52015;SDS011;38032;53.326;6.472;2023-02-16T12:42:19;41.95;;;27.33;;
52015;SDS011;38032;53.326;6.472;2023-02-16T12:45:00;37.78;;;25.83;;
52015;SDS011;38032;53.326;6.472;2023-02-16T12:47:35;36.03;;;25.05;;
52015;SDS011;38032;53.326;6.472;2023-02-16T12:50:13;41.83;;;27.10;;
52015;SDS011;38032;53.326;6.472;2023-02-16T12:52:45;37.38;;;23.83;;
52015;SDS011;38032;53.326;6.472;2023-02-16T12:55:18;29.88;;;21.10;;
52015;SDS011;38032;53.326;6.472;2023-02-16T13:00:48;39.05;;;26.05;;
52015;SDS011;38032;53.326;6.472;2023-02-16T13:03:23;37.45;;;25.45;;
52015;SDS011;38032;53.326;6.472;2023-02-16T13:06:10;31.58;;;21.13;;
52015;SDS011;38032;53.326;6.472;2023-02-16T13:11:16;36.50;;;25.50;;
52015;SDS011;38032;53.326;6.472;2023-02-16T13:13:46;34.30;;;24.25;;
52015;SDS011;38032;53.326;6.472;2023-02-16T13:16:16;37.55;;;24.85;;
52015;SDS011;38032;53.326;6.472;2023-02-16T13:18:57;35.47;;;23.65;;
52015;SDS011;38032;53.326;6.472;2023-02-16T13:21:37;32.60;;;23.00;;
52015;SDS011;38032;53.326;6.472;2023-02-16T13:29:50;34.97;;;23.85;;
52015;SDS011;38032;53.326;6.472;2023-02-16T13:32:30;31.73;;;22.08;;
52015;SDS011;38032;53.326;6.472;2023-02-16T13:38:00;31.45;;;23.67;;
52015;SDS011;38032;53.326;6.472;2023-02-16T13:43:35;33.65;;;23.55;;
52015;SDS011;38032;53.326;6.472;2023-02-16T13:46:10;36.70;;;24.67;;
52015;SDS011;38032;53.326;6.472;2023-02-16T13:48:56;29.88;;;21.00;;
52015;SDS011;38032;53.326;6.472;2023-02-16T13:51:23;33.53;;;22.20;;
52015;SDS011;38032;53.326;6.472;2023-02-16T13:53:53;28.25;;;19.08;;
52015;SDS011;38032;53.326;6.472;2023-02-16T13:58:55;31.48;;;20.60;;
52015;SDS011;38032;53.326;6.472;2023-02-16T14:04:04;29.65;;;21.70;;
52015;SDS011;38032;53.326;6.472;2023-02-16T14:06:36;28.15;;;18.70;;
52015;SDS011;38032;53.326;6.472;2023-02-16T14:17:15;29.70;;;19.27;;
52015;SDS011;38032;53.326;6.472;2023-02-16T14:22:16;25.50;;;16.95;;
52015;SDS011;38032;53.326;6.472;2023-02-16T14:24:53;33.53;;;21.35;;
52015;SDS011;38032;53.326;6.472;2023-02-16T14:27:39;37.28;;;25.58;;
52015;SDS011;38032;53.326;6.472;2023-02-16T14:30:20;35.15;;;24.52;;
52015;SDS011;38032;53.326;6.472;2023-02-16T14:35:37;36.85;;;23.45;;
52015;SDS011;38032;53.326;6.472;2023-02-16T14:38:13;31.33;;;20.42;;
52015;SDS011;38032;53.326;6.472;2023-02-16T14:40:46;32.92;;;21.23;;
52015;SDS011;38032;53.326;6.472;2023-02-16T14:43:25;30.17;;;21.27;;
52015;SDS011;38032;53.326;6.472;2023-02-16T14:54:15;33.55;;;22.98;;
52015;SDS011;38032;53.326;6.472;2023-02-16T14:57:03;33.97;;;22.88;;
52015;SDS011;38032;53.326;6.472;2023-02-16T14:59:40;33.10;;;23.10;;
52015;SDS011;38032;53.326;6.472;2023-02-16T15:02:27;34.20;;;22.65;;
52015;SDS011;38032;53.326;6.472;2023-02-16T15:04:53;34.33;;;23.63;;
52015;SDS011;38032;53.326;6.472;2023-02-16T15:07:21;36.42;;;23.70;;
52015;SDS011;38032;53.326;6.472;2023-02-16T15:09:48;36.45;;;23.45;;
52015;SDS011;38032;53.326;6.472;2023-02-16T15:12:22;30.08;;;21.20;;
52015;SDS011;38032;53.326;6.472;2023-02-16T15:14:54;31.92;;;23.02;;
52015;SDS011;38032;53.326;6.472;2023-02-16T15:17:27;28.88;;;21.15;;
52015;SDS011;38032;53.326;6.472;2023-02-16T15:20:15;34.25;;;22.83;;
52015;SDS011;38032;53.326;6.472;2023-02-16T15:22:48;36.67;;;24.25;;
52015;SDS011;38032;53.326;6.472;2023-02-16T15:25:19;36.20;;;24.45;;
52015;SDS011;38032;53.326;6.472;2023-02-16T15:27:54;34.42;;;23.45;;
52015;SDS011;38032;53.326;6.472;2023-02-16T15:30:25;36.28;;;24.40;;
52015;SDS011;38032;53.326;6.472;2023-02-16T15:32:53;39.47;;;25.48;;
52015;SDS011;38032;53.326;6.472;2023-02-16T15:35:24;36.67;;;25.70;;
52015;SDS011;38032;53.326;6.472;2023-02-16T15:37:58;36.80;;;26.40;;
52015;SDS011;38032;53.326;6.472;2023-02-16T15:40:26;40.50;;;27.85;;
52015;SDS011;38032;53.326;6.472;2023-02-16T15:42:56;43.33;;;27.70;;
52015;SDS011;38032;53.326;6.472;2023-02-16T15:45:34;40.35;;;27.15;;
52015;SDS011;38032;53.326;6.472;2023-02-16T15:48:22;41.97;;;26.60;;
52015;SDS011;38032;53.326;6.472;2023-02-16T15:50:56;40.80;;;27.63;;
52015;SDS011;38032;53.326;6.472;2023-02-16T15:53:41;44.30;;;28.05;;
52015;SDS011;38032;53.326;6.472;2023-02-16T15:58:50;42.38;;;27.38;;
52015;SDS011;38032;53.326;6.472;2023-02-16T16:01:21;40.53;;;27.63;;
52015;SDS011;38032;53.326;6.472;2023-02-16T16:03:49;40.65;;;27.50;;
52015;SDS011;38032;53.326;6.472;2023-02-16T16:06:15;43.70;;;27.27;;
52015;SDS011;38032;53.326;6.472;2023-02-16T16:08:41;44.97;;;28.30;;
52015;SDS011;38032;53.326;6.472;2023-02-16T16:11:07;45.45;;;29.08;;
52015;SDS011;38032;53.326;6.472;2023-02-16T16:13:33;43.67;;;30.17;;
52015;SDS011;38032;53.326;6.472;2023-02-16T16:16:01;40.13;;;28.05;;
52015;SDS011;38032;53.326;6.472;2023-02-16T16:21:09;45.95;;;30.42;;
52015;SDS011;38032;53.326;6.472;2023-02-16T16:23:38;48.78;;;30.90;;
52015;SDS011;38032;53.326;6.472;2023-02-16T16:26:16;46.63;;;30.88;;
52015;SDS011;38032;53.326;6.472;2023-02-16T16:28:43;47.58;;;30.90;;
52015;SDS011;38032;53.326;6.472;2023-02-16T16:33:52;48.95;;;30.95;;